Terminal Aerodrome Forecast
Issued by NWS

Home | Current Version | Previous Version | Text Only | Print | Product List | Glossary On
Versions: 1 2 3 4 5 6 7 8 9 10 11 12 13 14 15 16 17
000
FTUS42 KFFC 172300
TAFRYY
TAF
KRYY 172336Z 1800/1824 32004KT P6SM SCT250
     FM180200 34002KT P6SM SCT250
     FM181500 04004KT P6SM FEW040
     FM182000 31005KT P6SM SCT050
      AMD NOT SKED 1804/1812=

USA.gov is the U.S. government's official web portal to all federal, state and local government web resources and services.